Time,TemperatureF,DewpointF,PressureIn,WindDirection,WindDirectionDegrees,WindSpeedMPH,WindSpeedGustMPH,Humidity,HourlyPrecipIn,Conditions,Clouds,dailyrainin,SoftwareType,DateUTC
2013-09-03 00:09:00,71.6,70.7,29.65,WSW,247,1.1,-999.0,97,-99.99,,,0.00,Acu-Link.com,2013-09-03 04:09:00,
2013-09-03 00:24:00,71.6,70.7,29.64,SE,135,0.0,-999.0,97,-99.99,,,0.00,Acu-Link.com,2013-09-03 04:24:00,
2013-09-03 00:39:00,71.4,70.5,29.64,East,90,0.0,-999.0,97,-99.99,,,0.00,Acu-Link.com,2013-09-03 04:39:00,
2013-09-03 00:55:00,71.1,70.2,29.64,ENE,67,0.0,-999.0,97,-99.99,,,0.00,Acu-Link.com,2013-09-03 04:55:00,
2013-09-03 01:10:00,70.9,70.0,29.63,South,180,0.0,-999.0,97,-99.99,,,0.00,Acu-Link.com,2013-09-03 05:10:00,
2013-09-03 01:25:00,70.5,69.6,29.62,ESE,112,0.0,-999.0,97,-99.99,,,0.00,Acu-Link.com,2013-09-03 05:25:00,
2013-09-03 01:40:00,70.3,69.4,29.63,ENE,67,0.0,-999.0,97,-99.99,,,0.00,Acu-Link.com,2013-09-03 05:40:00,
2013-09-03 01:55:00,70.3,69.4,29.62,East,90,3.2,-999.0,97,-99.99,,,0.00,Acu-Link.com,2013-09-03 05:55:00,
2013-09-03 02:11:00,70.3,69.4,29.62,NNE,22,0.0,-999.0,97,-99.99,,,0.00,Acu-Link.com,2013-09-03 06:11:00,
2013-09-03 02:26:00,70.2,69.3,29.62,NNE,22,0.0,-999.0,97,-99.99,,,0.00,Acu-Link.com,2013-09-03 06:26:00,
2013-09-03 02:41:00,70.0,69.1,29.61,WSW,247,0.0,-999.0,97,-99.99,,,0.00,Acu-Link.com,2013-09-03 06:41:00,
2013-09-03 02:56:00,69.4,68.5,29.60,ESE,112,0.0,-999.0,97,-99.99,,,0.00,Acu-Link.com,2013-09-03 06:56:00,
2013-09-03 03:12:00,69.8,68.9,29.61,SW,225,0.0,-999.0,97,-99.99,,,0.00,Acu-Link.com,2013-09-03 07:12:00,
2013-09-03 03:27:00,69.8,68.9,29.61,NNE,22,2.7,-999.0,97,-99.99,,,0.00,Acu-Link.com,2013-09-03 07:27:00,
2013-09-03 03:42:00,69.8,68.9,29.60,WNW,292,0.0,-999.0,97,-99.99,,,0.00,Acu-Link.com,2013-09-03 07:42:00,
2013-09-03 03:57:00,69.8,68.9,29.59,East,90,0.0,-999.0,97,-99.99,,,0.00,Acu-Link.com,2013-09-03 07:57:00,
2013-09-03 04:16:00,69.8,68.9,29.61,SW,225,0.0,-999.0,97,-99.99,,,0.00,Acu-Link.com,2013-09-03 08:16:00,
2013-09-03 04:31:00,69.8,68.9,29.60,East,90,1.7,-999.0,97,-99.99,,,0.00,Acu-Link.com,2013-09-03 08:31:00,
2013-09-03 04:46:00,69.6,68.7,29.60,East,90,3.7,-999.0,97,-99.99,,,0.00,Acu-Link.com,2013-09-03 08:46:00,
2013-09-03 05:01:00,69.6,68.4,29.60,South,180,0.0,-999.0,96,-99.99,,,0.00,Acu-Link.com,2013-09-03 09:01:00,
2013-09-03 05:16:00,69.3,68.1,29.62,SSW,202,0.0,-999.0,96,-99.99,,,0.00,Acu-Link.com,2013-09-03 09:16:00,
2013-09-03 05:32:00,68.4,67.2,29.63,ESE,112,0.0,-999.0,96,-99.99,,,0.00,Acu-Link.com,2013-09-03 09:32:00,
2013-09-03 05:47:00,68.2,67.0,29.64,NNE,22,0.0,-999.0,96,-99.99,,,0.00,Acu-Link.com,2013-09-03 09:47:00,
2013-09-03 06:02:00,68.0,66.8,29.64,SW,225,0.0,-999.0,96,-99.99,,,0.00,Acu-Link.com,2013-09-03 10:02:00,
2013-09-03 06:17:00,67.8,66.9,29.66,SSE,157,0.0,-999.0,97,-99.99,,,0.00,Acu-Link.com,2013-09-03 10:17:00,
2013-09-03 06:33:00,67.3,66.4,29.64,East,90,0.0,-999.0,97,-99.99,,,0.00,Acu-Link.com,2013-09-03 10:33:00,
2013-09-03 06:48:00,67.5,66.6,29.65,NNE,22,0.0,-999.0,97,-99.99,,,0.00,Acu-Link.com,2013-09-03 10:48:00,
2013-09-03 07:03:00,67.5,66.6,29.66,SSW,202,0.0,-999.0,97,-99.99,,,0.00,Acu-Link.com,2013-09-03 11:03:00,
2013-09-03 07:18:00,67.6,66.7,29.66,West,270,0.0,-999.0,97,-99.99,,,0.00,Acu-Link.com,2013-09-03 11:18:00,
2013-09-03 07:33:00,68.0,67.1,29.67,SW,225,0.0,-999.0,97,-99.99,,,0.00,Acu-Link.com,2013-09-03 11:33:00,
2013-09-03 07:49:00,68.4,67.5,29.68,North,0,0.0,-999.0,97,-99.99,,,0.00,Acu-Link.com,2013-09-03 11:49:00,
2013-09-03 08:04:00,68.9,67.7,29.68,SW,225,0.0,-999.0,96,-99.99,,,0.00,Acu-Link.com,2013-09-03 12:04:00,
2013-09-03 08:19:00,69.3,67.5,29.67,WSW,247,0.0,-999.0,94,-99.99,,,0.00,Acu-Link.com,2013-09-03 12:19:00,
2013-09-03 08:34:00,70.0,67.6,29.68,SSW,202,0.0,-999.0,92,-99.99,,,0.00,Acu-Link.com,2013-09-03 12:34:00,
2013-09-03 08:49:00,70.7,67.6,29.69,NE,45,2.7,-999.0,90,-99.99,,,0.00,Acu-Link.com,2013-09-03 12:49:00,
2013-09-03 09:05:00,71.4,67.7,29.68,NE,45,2.7,-999.0,88,-99.99,,,0.00,Acu-Link.com,2013-09-03 13:05:00,
2013-09-03 09:20:00,72.5,68.1,29.69,West,270,0.0,-999.0,86,-99.99,,,0.00,Acu-Link.com,2013-09-03 13:20:00,
2013-09-03 09:35:00,73.6,68.8,29.68,SSW,202,1.1,-999.0,85,-99.99,,,0.00,Acu-Link.com,2013-09-03 13:35:00,
2013-09-03 09:50:00,74.5,69.3,29.68,SSW,202,0.0,-999.0,84,-99.99,,,0.00,Acu-Link.com,2013-09-03 13:50:00,
2013-09-03 10:05:00,74.1,68.2,29.68,NNE,22,1.7,-999.0,82,-99.99,,,0.00,Acu-Link.com,2013-09-03 14:05:00,
2013-09-03 10:21:00,74.3,68.8,29.68,NNW,337,0.0,-999.0,83,-99.99,,,0.00,Acu-Link.com,2013-09-03 14:21:00,
2013-09-03 10:36:00,74.1,68.9,29.69,ENE,67,1.7,-999.0,84,-99.99,,,0.00,Acu-Link.com,2013-09-03 14:36:00,
2013-09-03 10:51:00,74.7,69.5,29.67,WSW,247,0.0,-999.0,84,-99.99,,,0.00,Acu-Link.com,2013-09-03 14:51:00,
2013-09-03 11:06:00,74.3,69.1,29.68,West,270,2.7,-999.0,84,-99.99,,,0.00,Acu-Link.com,2013-09-03 15:06:00,
2013-09-03 11:22:00,75.4,69.5,29.68,West,270,0.0,-999.0,82,-99.99,,,0.00,Acu-Link.com,2013-09-03 15:22:00,
2013-09-03 11:37:00,75.9,70.0,29.67,SSW,202,0.0,-999.0,82,-99.99,,,0.00,Acu-Link.com,2013-09-03 15:37:00,
2013-09-03 11:52:00,76.1,69.8,29.67,NE,45,0.0,-999.0,81,-99.99,,,0.00,Acu-Link.com,2013-09-03 15:52:00,
2013-09-03 12:07:00,76.3,70.0,29.65,North,0,1.7,-999.0,81,-99.99,,,0.00,Acu-Link.com,2013-09-03 16:07:00,
2013-09-03 12:22:00,75.9,70.4,29.65,SW,225,0.0,-999.0,83,-99.99,,,0.00,Acu-Link.com,2013-09-03 16:22:00,
2013-09-03 12:38:00,75.9,70.4,29.66,NNE,22,0.0,-999.0,83,-99.99,,,0.00,Acu-Link.com,2013-09-03 16:38:00,
2013-09-03 12:53:00,75.6,70.8,29.65,South,180,0.0,-999.0,85,-99.99,,,0.00,Acu-Link.com,2013-09-03 16:53:00,
2013-09-03 13:08:00,74.8,70.3,29.66,SSW,202,0.0,-999.0,86,-99.99,,,0.00,Acu-Link.com,2013-09-03 17:08:00,
2013-09-03 13:23:00,75.4,70.6,29.66,NE,45,2.2,-999.0,85,-99.99,,,0.00,Acu-Link.com,2013-09-03 17:23:00,
2013-09-03 13:39:00,75.7,70.5,29.65,ENE,67,1.7,-999.0,84,-99.99,,,0.00,Acu-Link.com,2013-09-03 17:39:00,
2013-09-03 13:54:00,74.8,70.3,29.64,NE,45,0.0,-999.0,86,-99.99,,,0.00,Acu-Link.com,2013-09-03 17:54:00,
2013-09-03 14:09:00,75.4,70.6,29.64,NE,45,1.1,-999.0,85,-99.99,,,0.00,Acu-Link.com,2013-09-03 18:09:00,
2013-09-03 14:24:00,76.6,71.4,29.64,South,180,2.7,-999.0,84,-99.99,,,0.00,Acu-Link.com,2013-09-03 18:24:00,
2013-09-03 14:40:00,75.9,71.4,29.64,ENE,67,1.7,-999.0,86,-99.99,,,0.00,Acu-Link.com,2013-09-03 18:40:00,
2013-09-03 14:55:00,75.0,70.9,29.64,West,270,2.2,-999.0,87,-99.99,,,0.00,Acu-Link.com,2013-09-03 18:55:00,
2013-09-03 15:10:00,73.9,70.8,29.63,SSW,202,0.0,-999.0,90,-99.99,,,0.01,Acu-Link.com,2013-09-03 19:10:00,
2013-09-03 15:25:00,73.2,70.7,29.63,SSW,202,1.7,-999.0,92,-99.99,,,0.01,Acu-Link.com,2013-09-03 19:25:00,
2013-09-03 15:40:00,72.3,69.8,29.64,West,270,3.7,-999.0,92,-99.99,,,0.02,Acu-Link.com,2013-09-03 19:40:00,
2013-09-03 15:56:00,72.7,70.6,29.63,NW,315,7.3,-999.0,93,-99.99,,,0.09,Acu-Link.com,2013-09-03 19:56:00,
2013-09-03 16:11:00,73.6,70.1,29.62,ENE,67,3.7,-999.0,89,-99.99,,,0.09,Acu-Link.com,2013-09-03 20:11:00,
2013-09-03 16:26:00,73.9,71.1,29.64,SW,225,2.7,-999.0,91,-99.99,,,0.09,Acu-Link.com,2013-09-03 20:26:00,
2013-09-03 16:41:00,75.0,71.2,29.62,East,90,0.0,-999.0,88,-99.99,,,0.09,Acu-Link.com,2013-09-03 20:41:00,
2013-09-03 16:56:00,73.6,70.1,29.64,West,270,2.2,-999.0,89,-99.99,,,0.09,Acu-Link.com,2013-09-03 20:56:00,
2013-09-03 17:12:00,72.0,69.2,29.64,SSE,157,2.2,-999.0,91,-99.99,,,0.09,Acu-Link.com,2013-09-03 21:12:00,
2013-09-03 17:27:00,71.6,69.1,29.65,ESE,112,1.1,-999.0,92,-99.99,,,0.09,Acu-Link.com,2013-09-03 21:27:00,
2013-09-03 17:42:00,71.1,68.7,29.64,ESE,112,2.7,-999.0,92,-99.99,,,0.09,Acu-Link.com,2013-09-03 21:42:00,
2013-09-03 17:57:00,71.1,68.0,29.64,ESE,112,0.0,-999.0,90,-99.99,,,0.09,Acu-Link.com,2013-09-03 21:57:00,
2013-09-03 18:12:00,70.7,66.6,29.65,SSW,202,1.7,-999.0,87,-99.99,,,0.09,Acu-Link.com,2013-09-03 22:12:00,
2013-09-03 18:28:00,70.3,66.2,29.64,NW,315,2.2,-999.0,87,-99.99,,,0.09,Acu-Link.com,2013-09-03 22:28:00,
2013-09-03 18:43:00,69.4,66.0,29.66,SW,225,0.0,-999.0,89,-99.99,,,0.09,Acu-Link.com,2013-09-03 22:43:00,
2013-09-03 18:58:00,69.3,66.6,29.65,WSW,247,0.0,-999.0,91,-99.99,,,0.09,Acu-Link.com,2013-09-03 22:58:00,
2013-09-03 19:13:00,68.9,65.8,29.66,SW,225,0.0,-999.0,90,-99.99,,,0.09,Acu-Link.com,2013-09-03 23:13:00,
2013-09-03 19:28:00,68.5,65.4,29.68,WSW,247,0.0,-999.0,90,-99.99,,,0.09,Acu-Link.com,2013-09-03 23:28:00,
2013-09-03 19:44:00,67.6,65.2,29.67,SSW,202,0.0,-999.0,92,-99.99,,,0.09,Acu-Link.com,2013-09-03 23:44:00,
2013-09-03 19:59:00,67.1,64.7,29.67,SW,225,0.0,-999.0,92,-99.99,,,0.09,Acu-Link.com,2013-09-03 23:59:00,
2013-09-03 20:14:00,66.4,64.3,29.69,SW,225,0.0,-999.0,93,-99.99,,,0.09,Acu-Link.com,2013-09-04 00:14:00,
2013-09-03 20:29:00,65.8,64.3,29.70,SW,225,0.0,-999.0,95,-99.99,,,0.09,Acu-Link.com,2013-09-04 00:29:00,
2013-09-03 20:45:00,65.3,63.8,29.69,SW,225,0.0,-999.0,95,-99.99,,,0.09,Acu-Link.com,2013-09-04 00:45:00,
2013-09-03 21:00:00,65.1,63.6,29.69,SW,225,0.0,-999.0,95,-99.99,,,0.09,Acu-Link.com,2013-09-04 01:00:00,
2013-09-03 21:15:00,64.6,63.4,29.70,SW,225,0.0,-999.0,96,-99.99,,,0.09,Acu-Link.com,2013-09-04 01:15:00,
2013-09-03 21:30:00,64.0,62.8,29.70,WSW,247,0.0,-999.0,96,-99.99,,,0.09,Acu-Link.com,2013-09-04 01:30:00,
2013-09-03 21:46:00,63.7,62.2,29.70,SW,225,0.0,-999.0,95,-99.99,,,0.09,Acu-Link.com,2013-09-04 01:46:00,
2013-09-03 22:01:00,63.3,61.8,29.71,ENE,67,1.1,-999.0,95,-99.99,,,0.09,Acu-Link.com,2013-09-04 02:01:00,
2013-09-03 22:16:00,63.0,61.2,29.71,SW,225,0.0,-999.0,94,-99.99,,,0.09,Acu-Link.com,2013-09-04 02:16:00,
2013-09-03 22:32:00,62.4,60.6,29.72,ENE,67,0.0,-999.0,94,-99.99,,,0.09,Acu-Link.com,2013-09-04 02:32:00,
2013-09-03 22:47:00,62.2,60.4,29.72,SW,225,0.0,-999.0,94,-99.99,,,0.09,Acu-Link.com,2013-09-04 02:47:00,
2013-09-03 23:02:00,61.9,60.2,29.72,West,270,1.1,-999.0,94,-99.99,,,0.09,Acu-Link.com,2013-09-04 03:02:00,
2013-09-03 23:18:00,61.7,59.3,29.71,NW,315,0.0,-999.0,92,-99.99,,,0.09,Acu-Link.com,2013-09-04 03:18:00,
2013-09-03 23:33:00,61.3,59.0,29.72,SW,225,0.0,-999.0,92,-99.99,,,0.09,Acu-Link.com,2013-09-04 03:33:00,
2013-09-03 23:48:00,61.2,58.9,29.73,WNW,292,1.7,-999.0,92,-99.99,,,0.09,Acu-Link.com,2013-09-04 03:48:00,